sensor_id;sensor_type;location;lat;lon;timestamp;temperature;humidity
16515;DHT22;8370;52.556;7.970;2022-09-09T00:01:54;14.20;99.90
16515;DHT22;8370;52.556;7.970;2022-09-09T00:04:30;14.10;99.90
16515;DHT22;8370;52.556;7.970;2022-09-09T00:09:26;14.10;99.90
16515;DHT22;8370;52.556;7.970;2022-09-09T00:12:06;14.10;99.90
16515;DHT22;8370;52.556;7.970;2022-09-09T00:14:51;14.00;99.90
16515;DHT22;8370;52.556;7.970;2022-09-09T00:17:36;14.00;99.90
16515;DHT22;8370;52.556;7.970;2022-09-09T00:28:40;13.90;99.90
16515;DHT22;8370;52.556;7.970;2022-09-09T00:31:14;14.00;99.90
16515;DHT22;8370;52.556;7.970;2022-09-09T00:33:42;13.90;99.90
16515;DHT22;8370;52.556;7.970;2022-09-09T00:36:18;13.90;99.90
16515;DHT22;8370;52.556;7.970;2022-09-09T00:38:52;13.90;99.90
16515;DHT22;8370;52.556;7.970;2022-09-09T00:41:50;13.80;99.90
16515;DHT22;8370;52.556;7.970;2022-09-09T00:44:37;13.70;99.90
16515;DHT22;8370;52.556;7.970;2022-09-09T00:50:03;13.70;99.90
16515;DHT22;8370;52.556;7.970;2022-09-09T00:57:30;13.70;99.90
16515;DHT22;8370;52.556;7.970;2022-09-09T01:10:56;13.60;99.90
16515;DHT22;8370;52.556;7.970;2022-09-09T01:13:29;13.60;99.90
16515;DHT22;8370;52.556;7.970;2022-09-09T01:15:58;13.60;99.90
16515;DHT22;8370;52.556;7.970;2022-09-09T01:18:29;13.50;99.90
16515;DHT22;8370;52.556;7.970;2022-09-09T01:21:15;13.60;99.90
16515;DHT22;8370;52.556;7.970;2022-09-09T01:26:41;13.60;99.90
16515;DHT22;8370;52.556;7.970;2022-09-09T01:29:09;13.70;99.90
16515;DHT22;8370;52.556;7.970;2022-09-09T01:31:52;13.70;99.90
16515;DHT22;8370;52.556;7.970;2022-09-09T01:34:18;13.70;99.90
16515;DHT22;8370;52.556;7.970;2022-09-09T01:37:08;13.80;99.90
16515;DHT22;8370;52.556;7.970;2022-09-09T01:39:35;13.80;99.90
16515;DHT22;8370;52.556;7.970;2022-09-09T01:42:02;13.90;99.90
16515;DHT22;8370;52.556;7.970;2022-09-09T01:44:30;13.90;99.90
16515;DHT22;8370;52.556;7.970;2022-09-09T01:46:55;13.90;99.90
16515;DHT22;8370;52.556;7.970;2022-09-09T01:49:21;14.00;99.90
16515;DHT22;8370;52.556;7.970;2022-09-09T01:51:51;14.00;99.90
16515;DHT22;8370;52.556;7.970;2022-09-09T01:54:17;14.00;99.90
16515;DHT22;8370;52.556;7.970;2022-09-09T01:57:38;14.00;99.90
16515;DHT22;8370;52.556;7.970;2022-09-09T02:00:06;14.00;99.90
16515;DHT22;8370;52.556;7.970;2022-09-09T02:05:47;14.00;99.90
16515;DHT22;8370;52.556;7.970;2022-09-09T02:08:52;14.10;99.90
16515;DHT22;8370;52.556;7.970;2022-09-09T02:11:20;14.10;99.90
16515;DHT22;8370;52.556;7.970;2022-09-09T02:13:48;14.10;99.90
16515;DHT22;8370;52.556;7.970;2022-09-09T02:16:28;14.10;99.90
16515;DHT22;8370;52.556;7.970;2022-09-09T02:21:42;14.10;99.90
16515;DHT22;8370;52.556;7.970;2022-09-09T02:24:08;14.10;99.90
16515;DHT22;8370;52.556;7.970;2022-09-09T02:26:38;14.20;99.90
16515;DHT22;8370;52.556;7.970;2022-09-09T02:29:09;14.20;99.90
16515;DHT22;8370;52.556;7.970;2022-09-09T02:31:37;14.20;99.90
16515;DHT22;8370;52.556;7.970;2022-09-09T02:34:05;14.20;99.90
16515;DHT22;8370;52.556;7.970;2022-09-09T02:36:34;14.20;99.90
16515;DHT22;8370;52.556;7.970;2022-09-09T02:39:01;14.20;99.90
16515;DHT22;8370;52.556;7.970;2022-09-09T02:41:33;14.30;99.90
16515;DHT22;8370;52.556;7.970;2022-09-09T02:43:59;14.30;99.90
16515;DHT22;8370;52.556;7.970;2022-09-09T02:52:07;14.30;99.90
16515;DHT22;8370;52.556;7.970;2022-09-09T02:54:35;14.30;99.90
16515;DHT22;8370;52.556;7.970;2022-09-09T02:57:22;14.30;99.90
16515;DHT22;8370;52.556;7.970;2022-09-09T02:59:49;14.40;99.90
16515;DHT22;8370;52.556;7.970;2022-09-09T03:02:17;14.40;99.90
16515;DHT22;8370;52.556;7.970;2022-09-09T03:04:44;14.40;99.90
16515;DHT22;8370;52.556;7.970;2022-09-09T03:07:10;14.40;99.90
16515;DHT22;8370;52.556;7.970;2022-09-09T03:09:36;14.40;99.90
16515;DHT22;8370;52.556;7.970;2022-09-09T03:12:02;14.40;99.90
16515;DHT22;8370;52.556;7.970;2022-09-09T03:14:29;14.30;99.90
16515;DHT22;8370;52.556;7.970;2022-09-09T03:16:56;14.40;99.90
16515;DHT22;8370;52.556;7.970;2022-09-09T03:19:23;14.30;99.90
16515;DHT22;8370;52.556;7.970;2022-09-09T03:21:49;14.30;99.90
16515;DHT22;8370;52.556;7.970;2022-09-09T03:24:15;14.30;99.90
16515;DHT22;8370;52.556;7.970;2022-09-09T03:26:42;14.30;99.90
16515;DHT22;8370;52.556;7.970;2022-09-09T03:29:10;14.30;99.90
16515;DHT22;8370;52.556;7.970;2022-09-09T03:31:38;14.30;99.90
16515;DHT22;8370;52.556;7.970;2022-09-09T03:34:04;14.30;99.90
16515;DHT22;8370;52.556;7.970;2022-09-09T03:36:30;14.30;99.90
16515;DHT22;8370;52.556;7.970;2022-09-09T03:38:55;14.40;99.90
16515;DHT22;8370;52.556;7.970;2022-09-09T03:41:22;14.40;99.90
16515;DHT22;8370;52.556;7.970;2022-09-09T03:43:52;14.40;99.90
16515;DHT22;8370;52.556;7.970;2022-09-09T03:46:22;14.40;99.90
16515;DHT22;8370;52.556;7.970;2022-09-09T03:48:48;14.40;99.90
16515;DHT22;8370;52.556;7.970;2022-09-09T03:51:14;14.40;99.90
16515;DHT22;8370;52.556;7.970;2022-09-09T03:53:40;14.40;99.90
16515;DHT22;8370;52.556;7.970;2022-09-09T03:56:06;14.40;99.90
16515;DHT22;8370;52.556;7.970;2022-09-09T03:58:33;14.50;99.90
16515;DHT22;8370;52.556;7.970;2022-09-09T04:01:11;14.50;99.90
16515;DHT22;8370;52.556;7.970;2022-09-09T04:03:41;14.50;99.90
16515;DHT22;8370;52.556;7.970;2022-09-09T04:06:13;14.50;99.90
16515;DHT22;8370;52.556;7.970;2022-09-09T04:08:39;14.50;99.90
16515;DHT22;8370;52.556;7.970;2022-09-09T04:11:05;14.50;99.90
16515;DHT22;8370;52.556;7.970;2022-09-09T04:13:32;14.40;99.90
16515;DHT22;8370;52.556;7.970;2022-09-09T04:16:00;14.40;99.90
16515;DHT22;8370;52.556;7.970;2022-09-09T04:18:26;14.40;99.90
16515;DHT22;8370;52.556;7.970;2022-09-09T04:20:54;14.40;99.90
16515;DHT22;8370;52.556;7.970;2022-09-09T04:23:23;14.40;99.90
16515;DHT22;8370;52.556;7.970;2022-09-09T04:25:53;14.40;99.90
16515;DHT22;8370;52.556;7.970;2022-09-09T04:28:20;14.40;99.90
16515;DHT22;8370;52.556;7.970;2022-09-09T04:30:47;14.40;99.90
16515;DHT22;8370;52.556;7.970;2022-09-09T04:33:13;14.40;99.90
16515;DHT22;8370;52.556;7.970;2022-09-09T04:35:47;14.40;99.90
16515;DHT22;8370;52.556;7.970;2022-09-09T04:38:14;14.40;99.90
16515;DHT22;8370;52.556;7.970;2022-09-09T04:40:43;14.40;99.90
16515;DHT22;8370;52.556;7.970;2022-09-09T04:43:09;14.40;99.90
16515;DHT22;8370;52.556;7.970;2022-09-09T04:45:35;14.40;99.90
16515;DHT22;8370;52.556;7.970;2022-09-09T04:48:01;14.30;99.90
16515;DHT22;8370;52.556;7.970;2022-09-09T04:50:27;14.40;99.90
16515;DHT22;8370;52.556;7.970;2022-09-09T04:52:53;14.30;99.90
16515;DHT22;8370;52.556;7.970;2022-09-09T04:55:19;14.30;99.90
16515;DHT22;8370;52.556;7.970;2022-09-09T04:57:45;14.40;99.90
16515;DHT22;8370;52.556;7.970;2022-09-09T05:00:11;14.40;99.90
16515;DHT22;8370;52.556;7.970;2022-09-09T05:02:37;14.40;99.90
16515;DHT22;8370;52.556;7.970;2022-09-09T05:05:04;14.40;99.90
16515;DHT22;8370;52.556;7.970;2022-09-09T05:07:30;14.40;99.90
16515;DHT22;8370;52.556;7.970;2022-09-09T05:09:56;14.40;99.90
16515;DHT22;8370;52.556;7.970;2022-09-09T05:12:22;14.30;99.90
16515;DHT22;8370;52.556;7.970;2022-09-09T05:14:51;14.30;99.90
16515;DHT22;8370;52.556;7.970;2022-09-09T05:17:17;14.40;99.90
16515;DHT22;8370;52.556;7.970;2022-09-09T05:19:43;14.40;99.90
16515;DHT22;8370;52.556;7.970;2022-09-09T05:22:09;14.40;99.90
16515;DHT22;8370;52.556;7.970;2022-09-09T05:24:35;14.40;99.90
16515;DHT22;8370;52.556;7.970;2022-09-09T05:27:02;14.40;99.90
16515;DHT22;8370;52.556;7.970;2022-09-09T05:29:28;14.40;99.90
16515;DHT22;8370;52.556;7.970;2022-09-09T05:31:53;14.40;99.90
16515;DHT22;8370;52.556;7.970;2022-09-09T05:34:19;14.40;99.90
16515;DHT22;8370;52.556;7.970;2022-09-09T05:36:46;14.40;99.90
16515;DHT22;8370;52.556;7.970;2022-09-09T05:39:12;14.40;99.90
16515;DHT22;8370;52.556;7.970;2022-09-09T05:41:37;14.40;99.90
16515;DHT22;8370;52.556;7.970;2022-09-09T05:44:03;14.30;99.90
16515;DHT22;8370;52.556;7.970;2022-09-09T05:46:29;14.30;99.90
16515;DHT22;8370;52.556;7.970;2022-09-09T05:48:55;14.30;99.90
16515;DHT22;8370;52.556;7.970;2022-09-09T05:51:24;14.30;99.90
16515;DHT22;8370;52.556;7.970;2022-09-09T05:53:51;14.20;99.90
16515;DHT22;8370;52.556;7.970;2022-09-09T05:56:19;14.20;99.90
16515;DHT22;8370;52.556;7.970;2022-09-09T05:58:46;14.20;99.90
16515;DHT22;8370;52.556;7.970;2022-09-09T06:01:25;14.20;99.90
16515;DHT22;8370;52.556;7.970;2022-09-09T06:03:54;14.30;99.90
16515;DHT22;8370;52.556;7.970;2022-09-09T06:06:22;14.20;99.90
16515;DHT22;8370;52.556;7.970;2022-09-09T06:08:50;14.20;99.90
16515;DHT22;8370;52.556;7.970;2022-09-09T06:11:22;14.20;99.90
16515;DHT22;8370;52.556;7.970;2022-09-09T06:13:48;14.20;99.90
16515;DHT22;8370;52.556;7.970;2022-09-09T06:16:17;14.30;99.90
16515;DHT22;8370;52.556;7.970;2022-09-09T06:18:43;14.40;99.90
16515;DHT22;8370;52.556;7.970;2022-09-09T06:21:16;14.50;99.90
16515;DHT22;8370;52.556;7.970;2022-09-09T06:23:42;14.60;99.90
16515;DHT22;8370;52.556;7.970;2022-09-09T06:26:11;14.70;99.90
16515;DHT22;8370;52.556;7.970;2022-09-09T06:28:37;14.80;99.90
16515;DHT22;8370;52.556;7.970;2022-09-09T06:31:05;14.90;99.90
16515;DHT22;8370;52.556;7.970;2022-09-09T06:33:39;14.90;99.90
16515;DHT22;8370;52.556;7.970;2022-09-09T06:36:10;15.00;99.90
16515;DHT22;8370;52.556;7.970;2022-09-09T06:38:36;15.00;99.90
16515;DHT22;8370;52.556;7.970;2022-09-09T06:41:02;15.10;99.90
16515;DHT22;8370;52.556;7.970;2022-09-09T06:43:28;15.20;99.90
16515;DHT22;8370;52.556;7.970;2022-09-09T06:45:58;15.30;99.90
16515;DHT22;8370;52.556;7.970;2022-09-09T06:48:25;15.40;99.90
16515;DHT22;8370;52.556;7.970;2022-09-09T06:51:08;15.50;99.90
16515;DHT22;8370;52.556;7.970;2022-09-09T06:53:35;15.50;99.90
16515;DHT22;8370;52.556;7.970;2022-09-09T06:56:23;15.60;99.90
16515;DHT22;8370;52.556;7.970;2022-09-09T06:58:50;15.70;99.90
16515;DHT22;8370;52.556;7.970;2022-09-09T07:01:18;15.80;99.90
16515;DHT22;8370;52.556;7.970;2022-09-09T07:03:50;15.90;99.90
16515;DHT22;8370;52.556;7.970;2022-09-09T07:06:21;16.10;99.90
16515;DHT22;8370;52.556;7.970;2022-09-09T07:08:52;16.20;99.90
16515;DHT22;8370;52.556;7.970;2022-09-09T07:11:19;16.30;99.90
16515;DHT22;8370;52.556;7.970;2022-09-09T07:13:45;16.40;99.90
16515;DHT22;8370;52.556;7.970;2022-09-09T07:16:13;16.50;99.90
16515;DHT22;8370;52.556;7.970;2022-09-09T07:18:40;16.60;99.90
16515;DHT22;8370;52.556;7.970;2022-09-09T07:21:07;16.60;99.90
16515;DHT22;8370;52.556;7.970;2022-09-09T07:23:34;16.70;99.90
16515;DHT22;8370;52.556;7.970;2022-09-09T07:26:01;16.80;99.90
16515;DHT22;8370;52.556;7.970;2022-09-09T07:28:26;16.90;99.90
16515;DHT22;8370;52.556;7.970;2022-09-09T07:30:58;17.00;99.90
16515;DHT22;8370;52.556;7.970;2022-09-09T07:33:25;17.10;99.90
16515;DHT22;8370;52.556;7.970;2022-09-09T07:35:51;17.10;99.90
16515;DHT22;8370;52.556;7.970;2022-09-09T07:38:18;17.10;99.90
16515;DHT22;8370;52.556;7.970;2022-09-09T07:40:44;17.20;99.90
16515;DHT22;8370;52.556;7.970;2022-09-09T07:43:10;17.20;99.90
16515;DHT22;8370;52.556;7.970;2022-09-09T07:45:36;17.20;99.90
16515;DHT22;8370;52.556;7.970;2022-09-09T07:48:02;17.20;99.90
16515;DHT22;8370;52.556;7.970;2022-09-09T07:50:28;17.20;99.90
16515;DHT22;8370;52.556;7.970;2022-09-09T07:52:54;17.30;99.90
16515;DHT22;8370;52.556;7.970;2022-09-09T07:55:21;17.30;99.90
16515;DHT22;8370;52.556;7.970;2022-09-09T07:57:46;17.30;99.90
16515;DHT22;8370;52.556;7.970;2022-09-09T08:00:13;17.30;99.90
16515;DHT22;8370;52.556;7.970;2022-09-09T08:02:40;17.40;99.90
16515;DHT22;8370;52.556;7.970;2022-09-09T08:05:06;17.40;99.90
16515;DHT22;8370;52.556;7.970;2022-09-09T08:07:31;17.40;99.90
16515;DHT22;8370;52.556;7.970;2022-09-09T08:09:57;17.40;99.90
16515;DHT22;8370;52.556;7.970;2022-09-09T08:12:23;17.40;99.90
16515;DHT22;8370;52.556;7.970;2022-09-09T08:14:48;17.40;99.90
16515;DHT22;8370;52.556;7.970;2022-09-09T08:17:14;17.50;99.90
16515;DHT22;8370;52.556;7.970;2022-09-09T08:19:40;17.40;99.90
16515;DHT22;8370;52.556;7.970;2022-09-09T08:22:05;17.40;99.90
16515;DHT22;8370;52.556;7.970;2022-09-09T08:24:31;17.40;99.90
16515;DHT22;8370;52.556;7.970;2022-09-09T08:26:56;17.50;99.90
16515;DHT22;8370;52.556;7.970;2022-09-09T08:29:22;17.60;99.90
16515;DHT22;8370;52.556;7.970;2022-09-09T08:31:50;17.80;99.90
16515;DHT22;8370;52.556;7.970;2022-09-09T08:34:17;17.90;99.90
16515;DHT22;8370;52.556;7.970;2022-09-09T08:36:46;18.10;99.90
16515;DHT22;8370;52.556;7.970;2022-09-09T08:39:14;18.20;99.90
16515;DHT22;8370;52.556;7.970;2022-09-09T08:44:48;18.40;99.90
16515;DHT22;8370;52.556;7.970;2022-09-09T08:53:04;18.70;99.90
16515;DHT22;8370;52.556;7.970;2022-09-09T08:55:47;18.80;99.90
16515;DHT22;8370;52.556;7.970;2022-09-09T08:58:17;18.80;99.90
16515;DHT22;8370;52.556;7.970;2022-09-09T09:03:55;18.80;99.90
16515;DHT22;8370;52.556;7.970;2022-09-09T09:09:12;18.80;99.90
16515;DHT22;8370;52.556;7.970;2022-09-09T09:12:21;18.90;99.90
16515;DHT22;8370;52.556;7.970;2022-09-09T09:14:48;19.00;99.90
16515;DHT22;8370;52.556;7.970;2022-09-09T09:17:18;19.20;99.90
16515;DHT22;8370;52.556;7.970;2022-09-09T09:19:45;19.40;99.90
16515;DHT22;8370;52.556;7.970;2022-09-09T09:22:24;19.40;99.90
16515;DHT22;8370;52.556;7.970;2022-09-09T09:24:56;19.50;99.90
16515;DHT22;8370;52.556;7.970;2022-09-09T09:29:59;19.50;99.90
16515;DHT22;8370;52.556;7.970;2022-09-09T09:32:28;19.40;99.90
16515;DHT22;8370;52.556;7.970;2022-09-09T09:34:57;19.40;99.90
16515;DHT22;8370;52.556;7.970;2022-09-09T09:37:31;19.40;99.90
16515;DHT22;8370;52.556;7.970;2022-09-09T09:40:11;19.50;99.90
16515;DHT22;8370;52.556;7.970;2022-09-09T09:42:38;19.60;99.90
16515;DHT22;8370;52.556;7.970;2022-09-09T09:45:20;19.60;99.90
16515;DHT22;8370;52.556;7.970;2022-09-09T09:48:05;19.90;99.90
16515;DHT22;8370;52.556;7.970;2022-09-09T09:50:32;20.20;99.90
16515;DHT22;8370;52.556;7.970;2022-09-09T09:53:28;20.50;99.90
16515;DHT22;8370;52.556;7.970;2022-09-09T09:56:11;20.80;99.90
16515;DHT22;8370;52.556;7.970;2022-09-09T10:01:21;21.30;99.90
16515;DHT22;8370;52.556;7.970;2022-09-09T10:04:00;21.40;99.90
16515;DHT22;8370;52.556;7.970;2022-09-09T10:06:35;21.30;99.90
16515;DHT22;8370;52.556;7.970;2022-09-09T10:09:17;21.20;99.90
16515;DHT22;8370;52.556;7.970;2022-09-09T10:15:01;21.30;99.90
16515;DHT22;8370;52.556;7.970;2022-09-09T10:17:41;21.20;99.90
16515;DHT22;8370;52.556;7.970;2022-09-09T10:22:35;21.40;99.90
16515;DHT22;8370;52.556;7.970;2022-09-09T10:25:12;21.60;99.90
16515;DHT22;8370;52.556;7.970;2022-09-09T10:33:08;21.90;99.90
16515;DHT22;8370;52.556;7.970;2022-09-09T10:35:47;22.00;99.90
16515;DHT22;8370;52.556;7.970;2022-09-09T10:41:30;22.30;99.90
16515;DHT22;8370;52.556;7.970;2022-09-09T10:52:49;22.50;99.90
16515;DHT22;8370;52.556;7.970;2022-09-09T10:55:20;22.40;99.90
16515;DHT22;8370;52.556;7.970;2022-09-09T10:57:48;22.50;99.90
16515;DHT22;8370;52.556;7.970;2022-09-09T11:00:17;22.50;99.90
16515;DHT22;8370;52.556;7.970;2022-09-09T11:02:43;22.40;99.90
16515;DHT22;8370;52.556;7.970;2022-09-09T11:05:16;22.10;99.90
16515;DHT22;8370;52.556;7.970;2022-09-09T11:07:59;21.70;99.90
16515;DHT22;8370;52.556;7.970;2022-09-09T11:10:39;21.30;99.90
16515;DHT22;8370;52.556;7.970;2022-09-09T11:13:13;21.30;99.90
16515;DHT22;8370;52.556;7.970;2022-09-09T11:15:44;21.60;99.90
16515;DHT22;8370;52.556;7.970;2022-09-09T11:18:15;21.80;99.90
16515;DHT22;8370;52.556;7.970;2022-09-09T11:20:44;21.70;99.90
16515;DHT22;8370;52.556;7.970;2022-09-09T11:23:17;21.60;99.90
16515;DHT22;8370;52.556;7.970;2022-09-09T11:25:51;21.60;99.90
16515;DHT22;8370;52.556;7.970;2022-09-09T11:31:21;21.50;99.90
16515;DHT22;8370;52.556;7.970;2022-09-09T11:37:10;21.30;99.90
16515;DHT22;8370;52.556;7.970;2022-09-09T11:39:47;21.30;99.90
16515;DHT22;8370;52.556;7.970;2022-09-09T11:42:22;21.20;99.90
16515;DHT22;8370;52.556;7.970;2022-09-09T11:44:48;22.40;99.90
16515;DHT22;8370;52.556;7.970;2022-09-09T11:47:22;24.30;99.90
16515;DHT22;8370;52.556;7.970;2022-09-09T11:49:49;26.70;99.90
16515;DHT22;8370;52.556;7.970;2022-09-09T11:52:43;27.60;99.90
16515;DHT22;8370;52.556;7.970;2022-09-09T11:55:28;28.70;99.90
16515;DHT22;8370;52.556;7.970;2022-09-09T12:00:40;30.60;99.90
16515;DHT22;8370;52.556;7.970;2022-09-09T12:06:16;29.10;99.90
16515;DHT22;8370;52.556;7.970;2022-09-09T12:08:47;28.30;99.90
16515;DHT22;8370;52.556;7.970;2022-09-09T12:11:24;27.10;99.90
16515;DHT22;8370;52.556;7.970;2022-09-09T12:13:55;26.00;99.90
16515;DHT22;8370;52.556;7.970;2022-09-09T12:19:16;24.30;99.90
16515;DHT22;8370;52.556;7.970;2022-09-09T12:24:40;23.30;99.90
16515;DHT22;8370;52.556;7.970;2022-09-09T12:27:24;23.60;99.90
16515;DHT22;8370;52.556;7.970;2022-09-09T12:29:53;25.00;99.90
16515;DHT22;8370;52.556;7.970;2022-09-09T12:32:23;26.10;99.90
16515;DHT22;8370;52.556;7.970;2022-09-09T12:35:02;26.50;99.90
16515;DHT22;8370;52.556;7.970;2022-09-09T12:40:02;25.70;99.90
16515;DHT22;8370;52.556;7.970;2022-09-09T12:42:29;25.60;99.90
16515;DHT22;8370;52.556;7.970;2022-09-09T12:44:57;25.30;99.90
16515;DHT22;8370;52.556;7.970;2022-09-09T12:47:36;24.80;99.90
16515;DHT22;8370;52.556;7.970;2022-09-09T12:50:04;24.60;99.90
16515;DHT22;8370;52.556;7.970;2022-09-09T12:52:35;24.20;99.90
16515;DHT22;8370;52.556;7.970;2022-09-09T12:55:04;24.10;99.90
16515;DHT22;8370;52.556;7.970;2022-09-09T12:57:35;24.10;99.90
16515;DHT22;8370;52.556;7.970;2022-09-09T13:00:16;24.10;99.90
16515;DHT22;8370;52.556;7.970;2022-09-09T13:02:52;24.00;99.90
16515;DHT22;8370;52.556;7.970;2022-09-09T13:05:35;24.00;99.90
16515;DHT22;8370;52.556;7.970;2022-09-09T13:08:10;23.80;99.90
16515;DHT22;8370;52.556;7.970;2022-09-09T13:10:59;23.90;99.90
16515;DHT22;8370;52.556;7.970;2022-09-09T13:13:28;24.00;99.90
16515;DHT22;8370;52.556;7.970;2022-09-09T13:16:00;23.90;99.90
16515;DHT22;8370;52.556;7.970;2022-09-09T13:18:29;23.70;99.90
16515;DHT22;8370;52.556;7.970;2022-09-09T13:20:56;23.60;99.90
16515;DHT22;8370;52.556;7.970;2022-09-09T13:23:29;23.60;99.90
16515;DHT22;8370;52.556;7.970;2022-09-09T13:25:57;23.60;99.90
16515;DHT22;8370;52.556;7.970;2022-09-09T13:28:26;23.80;99.90
16515;DHT22;8370;52.556;7.970;2022-09-09T13:31:00;23.80;99.90
16515;DHT22;8370;52.556;7.970;2022-09-09T13:33:31;23.70;99.90
16515;DHT22;8370;52.556;7.970;2022-09-09T13:36:09;23.50;99.90
16515;DHT22;8370;52.556;7.970;2022-09-09T13:38:38;23.30;99.90
16515;DHT22;8370;52.556;7.970;2022-09-09T13:41:09;23.40;99.90
16515;DHT22;8370;52.556;7.970;2022-09-09T13:43:43;23.30;99.90
16515;DHT22;8370;52.556;7.970;2022-09-09T13:46:35;23.30;99.90
16515;DHT22;8370;52.556;7.970;2022-09-09T13:51:36;23.20;99.90
16515;DHT22;8370;52.556;7.970;2022-09-09T13:54:04;23.10;99.90
16515;DHT22;8370;52.556;7.970;2022-09-09T13:56:31;23.10;99.90
16515;DHT22;8370;52.556;7.970;2022-09-09T13:58:57;22.90;99.90
16515;DHT22;8370;52.556;7.970;2022-09-09T14:01:23;22.80;99.90
16515;DHT22;8370;52.556;7.970;2022-09-09T14:03:49;22.80;99.90
16515;DHT22;8370;52.556;7.970;2022-09-09T14:06:14;22.60;99.90
16515;DHT22;8370;52.556;7.970;2022-09-09T14:08:40;22.60;99.90
16515;DHT22;8370;52.556;7.970;2022-09-09T14:11:06;22.50;99.90
16515;DHT22;8370;52.556;7.970;2022-09-09T14:13:32;22.60;99.90
16515;DHT22;8370;52.556;7.970;2022-09-09T14:15:57;22.70;99.90
16515;DHT22;8370;52.556;7.970;2022-09-09T14:18:23;22.90;99.90
16515;DHT22;8370;52.556;7.970;2022-09-09T14:20:50;23.00;99.90
16515;DHT22;8370;52.556;7.970;2022-09-09T14:23:16;23.10;99.90
16515;DHT22;8370;52.556;7.970;2022-09-09T14:25:43;23.10;99.90
16515;DHT22;8370;52.556;7.970;2022-09-09T14:28:10;23.00;99.90
16515;DHT22;8370;52.556;7.970;2022-09-09T14:30:38;22.90;99.90
16515;DHT22;8370;52.556;7.970;2022-09-09T14:33:04;22.80;99.90
16515;DHT22;8370;52.556;7.970;2022-09-09T14:35:29;22.90;99.90
16515;DHT22;8370;52.556;7.970;2022-09-09T14:37:55;23.00;99.90
16515;DHT22;8370;52.556;7.970;2022-09-09T14:40:21;23.00;99.90
16515;DHT22;8370;52.556;7.970;2022-09-09T14:42:47;22.90;99.90
16515;DHT22;8370;52.556;7.970;2022-09-09T14:45:12;22.90;99.90
16515;DHT22;8370;52.556;7.970;2022-09-09T14:47:38;22.90;99.90
16515;DHT22;8370;52.556;7.970;2022-09-09T14:50:05;22.90;99.90
16515;DHT22;8370;52.556;7.970;2022-09-09T14:52:30;23.00;99.90
16515;DHT22;8370;52.556;7.970;2022-09-09T14:54:56;22.90;99.90
16515;DHT22;8370;52.556;7.970;2022-09-09T14:57:22;22.80;99.90
16515;DHT22;8370;52.556;7.970;2022-09-09T14:59:47;22.60;99.90
16515;DHT22;8370;52.556;7.970;2022-09-09T15:02:14;22.40;99.90
16515;DHT22;8370;52.556;7.970;2022-09-09T15:04:40;22.20;99.90
16515;DHT22;8370;52.556;7.970;2022-09-09T15:07:05;22.00;99.90
16515;DHT22;8370;52.556;7.970;2022-09-09T15:09:30;21.40;99.90
16515;DHT22;8370;52.556;7.970;2022-09-09T15:11:56;19.60;99.90
16515;DHT22;8370;52.556;7.970;2022-09-09T15:14:21;18.40;99.90
16515;DHT22;8370;52.556;7.970;2022-09-09T15:16:47;17.70;99.90
16515;DHT22;8370;52.556;7.970;2022-09-09T15:19:13;16.90;99.90
16515;DHT22;8370;52.556;7.970;2022-09-09T15:21:38;16.60;99.90
16515;DHT22;8370;52.556;7.970;2022-09-09T15:24:04;16.40;99.90
16515;DHT22;8370;52.556;7.970;2022-09-09T15:26:30;16.40;99.90
16515;DHT22;8370;52.556;7.970;2022-09-09T15:28:56;16.50;99.90
16515;DHT22;8370;52.556;7.970;2022-09-09T15:31:27;16.70;99.90
16515;DHT22;8370;52.556;7.970;2022-09-09T15:33:58;16.80;99.90
16515;DHT22;8370;52.556;7.970;2022-09-09T15:36:30;16.90;99.90
16515;DHT22;8370;52.556;7.970;2022-09-09T15:38:57;17.10;99.90
16515;DHT22;8370;52.556;7.970;2022-09-09T15:41:23;17.20;99.90
16515;DHT22;8370;52.556;7.970;2022-09-09T15:43:51;17.30;99.90
16515;DHT22;8370;52.556;7.970;2022-09-09T15:48:43;17.50;99.90
16515;DHT22;8370;52.556;7.970;2022-09-09T15:51:10;17.70;99.90
16515;DHT22;8370;52.556;7.970;2022-09-09T15:53:36;17.60;99.90
16515;DHT22;8370;52.556;7.970;2022-09-09T15:56:07;17.80;99.90
16515;DHT22;8370;52.556;7.970;2022-09-09T15:58:33;17.80;99.90
16515;DHT22;8370;52.556;7.970;2022-09-09T16:01:06;17.50;99.90
16515;DHT22;8370;52.556;7.970;2022-09-09T16:03:42;17.30;99.90
16515;DHT22;8370;52.556;7.970;2022-09-09T16:06:09;17.30;99.90
16515;DHT22;8370;52.556;7.970;2022-09-09T16:08:39;17.20;99.90
16515;DHT22;8370;52.556;7.970;2022-09-09T16:11:16;17.20;99.90
16515;DHT22;8370;52.556;7.970;2022-09-09T16:13:43;17.40;99.90
16515;DHT22;8370;52.556;7.970;2022-09-09T16:16:11;17.80;99.90
16515;DHT22;8370;52.556;7.970;2022-09-09T16:18:39;18.30;99.90
16515;DHT22;8370;52.556;7.970;2022-09-09T16:21:05;18.60;99.90
16515;DHT22;8370;52.556;7.970;2022-09-09T16:23:34;18.60;99.90
16515;DHT22;8370;52.556;7.970;2022-09-09T16:26:00;18.60;99.90
16515;DHT22;8370;52.556;7.970;2022-09-09T16:28:26;18.70;99.90
16515;DHT22;8370;52.556;7.970;2022-09-09T16:30:52;18.60;99.90
16515;DHT22;8370;52.556;7.970;2022-09-09T16:33:18;18.50;99.90
16515;DHT22;8370;52.556;7.970;2022-09-09T16:35:43;18.10;99.90
16515;DHT22;8370;52.556;7.970;2022-09-09T16:38:09;18.00;99.90
16515;DHT22;8370;52.556;7.970;2022-09-09T16:40:38;17.70;99.90
16515;DHT22;8370;52.556;7.970;2022-09-09T16:43:04;17.60;99.90
16515;DHT22;8370;52.556;7.970;2022-09-09T16:45:30;17.50;99.90
16515;DHT22;8370;52.556;7.970;2022-09-09T16:47:57;17.40;99.90
16515;DHT22;8370;52.556;7.970;2022-09-09T16:50:23;17.30;99.90
16515;DHT22;8370;52.556;7.970;2022-09-09T16:52:48;17.10;99.90
16515;DHT22;8370;52.556;7.970;2022-09-09T16:55:14;17.10;99.90
16515;DHT22;8370;52.556;7.970;2022-09-09T16:57:39;17.00;99.90
16515;DHT22;8370;52.556;7.970;2022-09-09T17:00:07;16.90;99.90
16515;DHT22;8370;52.556;7.970;2022-09-09T17:02:34;16.90;99.90
16515;DHT22;8370;52.556;7.970;2022-09-09T17:04:59;16.90;99.90
16515;DHT22;8370;52.556;7.970;2022-09-09T17:07:25;16.90;99.90
16515;DHT22;8370;52.556;7.970;2022-09-09T17:09:50;16.90;99.90
16515;DHT22;8370;52.556;7.970;2022-09-09T17:12:16;16.90;99.90
16515;DHT22;8370;52.556;7.970;2022-09-09T17:14:42;16.90;99.90
16515;DHT22;8370;52.556;7.970;2022-09-09T17:17:08;16.90;99.90
16515;DHT22;8370;52.556;7.970;2022-09-09T17:19:34;16.90;99.90
16515;DHT22;8370;52.556;7.970;2022-09-09T17:21:59;16.90;99.90
16515;DHT22;8370;52.556;7.970;2022-09-09T17:24:26;16.90;99.90
16515;DHT22;8370;52.556;7.970;2022-09-09T17:26:53;16.90;99.90
16515;DHT22;8370;52.556;7.970;2022-09-09T17:29:19;16.90;99.90
16515;DHT22;8370;52.556;7.970;2022-09-09T17:31:45;16.80;99.90
16515;DHT22;8370;52.556;7.970;2022-09-09T17:34:10;16.80;99.90
16515;DHT22;8370;52.556;7.970;2022-09-09T17:36:37;16.80;99.90
16515;DHT22;8370;52.556;7.970;2022-09-09T17:39:04;16.80;99.90
16515;DHT22;8370;52.556;7.970;2022-09-09T17:41:32;16.80;99.90
16515;DHT22;8370;52.556;7.970;2022-09-09T17:43:59;16.80;99.90
16515;DHT22;8370;52.556;7.970;2022-09-09T17:46:33;16.80;99.90
16515;DHT22;8370;52.556;7.970;2022-09-09T17:49:03;16.80;99.90
16515;DHT22;8370;52.556;7.970;2022-09-09T17:51:30;16.80;99.90
16515;DHT22;8370;52.556;7.970;2022-09-09T17:53:58;16.80;99.90